Time;durP1;ratioP1;P1;durP2;ratioP2;P2;SDS_P1;SDS_P2;PMS_P1;PMS_P2;Temp;Humidity;BMP_temperature;BMP_pressure;BME280_temperature;BME280_humidity;BME280_pressure;Samples;Min_cycle;Max_cycle;Signal;HPM_P1;HPM_P2
2022/07/10 00:00:36;;;;;;;;;;;;;;;14.59;82.91;95129.81;5134283;27;981;-49
2022/07/10 00:03:03;;;;;;;;;;;;;;;14.59;83.31;95135.19;5133896;27;953;-49
2022/07/10 00:05:29;;;;;;;;;;;;;;;14.54;83.02;95138.38;5134277;28;1022;-49
2022/07/10 00:07:55;;;;;;;;;;;;;;;14.55;82.88;95126.63;5133984;28;1083;-49
2022/07/10 00:10:21;;;;;;;;;;;;;;;14.68;82.58;95128.66;5134197;28;1020;-49
2022/07/10 00:12:48;;;;;;;;;;;;;;;14.41;83.10;95127.44;5133990;28;1909;-49
2022/07/10 00:15:15;;;;;;;;;;;;;;;14.33;83.91;95124.84;5133991;28;1024;-49
2022/07/10 00:17:42;;;;;;;;;;;;;;;14.33;83.89;95124.84;5133712;28;1071;-49
2022/07/10 00:20:09;;;;;;;;;;;;;;;14.37;83.45;95126.16;5134200;28;964;-49
2022/07/10 00:22:37;;;;;;;;;;;;;;;14.38;83.24;95119.72;5134042;28;968;-49
2022/07/10 00:25:04;;;;;;;;;;;;;;;14.32;83.39;95118.63;5134081;28;1004;-49
2022/07/10 00:27:30;;;;;;;;;;;;;;;14.14;84.16;95121.69;5134267;28;1005;-49
2022/07/10 00:29:56;;;;;;;;;;;;;;;14.23;83.56;95117.88;5133969;28;1028;-49
2022/07/10 00:32:22;;;;;;;;;;;;;;;14.07;84.33;95115.38;5133680;28;979;-49
2022/07/10 00:34:48;;;;;;;;;;;;;;;14.01;84.65;95121.47;5133995;28;1032;-49
2022/07/10 00:37:14;;;;;;;;;;;;;;;14.28;84.55;95122.72;5133488;28;1092;-49
2022/07/10 00:39:40;;;;;;;;;;;;;;;14.53;84.38;95119.75;5133885;28;1071;-49
2022/07/10 00:42:15;;;;;;;;;;;;;;;14.58;84.13;95122.75;5133834;27;1181;-49
2022/07/10 00:44:42;;;;;;;;;;;;;;;14.49;83.72;95126.50;5154630;27;1026;-49
2022/07/10 00:47:09;;;;;;;;;;;;;;;14.33;83.01;95116.78;5154245;27;1007;-49
2022/07/10 00:49:36;;;;;;;;;;;;;;;14.13;84.05;95119.16;5154718;27;1022;-49
2022/07/10 00:52:03;;;;;;;;;;;;;;;14.24;83.52;95116.84;5154922;27;972;-49
2022/07/10 00:54:30;;;;;;;;;;;;;;;14.06;84.29;95114.53;5158332;27;1917;-49
2022/07/10 00:56:57;;;;;;;;;;;;;;;14.09;83.67;95118.69;5158408;27;1047;-49
2022/07/10 00:59:23;;;;;;;;;;;;;;;13.93;84.26;95121.56;5158006;27;1118;-49
2022/07/10 01:01:50;;;;;;;;;;;;;;;14.02;84.78;95120.47;5158222;27;967;-49
2022/07/10 01:04:16;;;;;;;;;;;;;;;14.30;82.30;95109.91;5157955;27;967;-49
2022/07/10 01:06:42;;;;;;;;;;;;;;;14.14;82.91;95110.94;5158345;27;1050;-49
2022/07/10 01:09:08;;;;;;;;;;;;;;;14.02;83.69;95112.41;5157855;27;1079;-49
2022/07/10 01:11:36;;;;;;;;;;;;;;;14.02;84.21;95107.03;5158079;27;1028;-49
2022/07/10 01:14:02;;;;;;;;;;;;;;;14.02;84.04;95107.03;5157570;27;1886;-49
2022/07/10 01:16:29;;;;;;;;;;;;;;;13.81;84.95;95105.03;5157940;27;1039;-49
2022/07/10 01:18:55;;;;;;;;;;;;;;;13.69;85.73;95098.44;5157754;27;1015;-49
2022/07/10 01:21:24;;;;;;;;;;;;;;;13.82;84.52;95087.91;5157930;27;1028;-49
2022/07/10 01:23:51;;;;;;;;;;;;;;;13.91;84.50;95089.50;5157817;27;1030;-49
2022/07/10 01:26:17;;;;;;;;;;;;;;;13.68;84.96;95086.84;5157637;27;1052;-49
2022/07/10 01:28:43;;;;;;;;;;;;;;;13.52;85.97;95095.88;5157536;27;1036;-49
2022/07/10 01:31:09;;;;;;;;;;;;;;;13.65;85.41;95088.03;5157583;27;1068;-49
2022/07/10 01:33:35;;;;;;;;;;;;;;;13.89;84.43;95087.97;5157397;27;1992;-49
2022/07/10 01:36:01;;;;;;;;;;;;;;;13.74;84.24;95080.75;5157090;27;1186;-49
2022/07/10 01:38:28;;;;;;;;;;;;;;;13.65;85.13;95087.22;5157503;27;965;-49
2022/07/10 01:40:54;;;;;;;;;;;;;;;13.76;85.06;95088.63;5157579;27;1209;-49
2022/07/10 01:43:20;;;;;;;;;;;;;;;13.88;84.36;95089.03;5146283;27;1211;-49
2022/07/10 01:45:46;;;;;;;;;;;;;;;13.80;84.35;95090.75;5136628;27;1036;-49
2022/07/10 01:48:12;;;;;;;;;;;;;;;13.82;84.40;95079.84;5136555;27;976;-48
2022/07/10 01:50:39;;;;;;;;;;;;;;;13.77;84.07;95083.09;5136723;27;972;-49
2022/07/10 01:53:05;;;;;;;;;;;;;;;13.56;84.35;95085.59;5136336;27;1906;-49
2022/07/10 01:55:32;;;;;;;;;;;;;;;13.34;85.87;95087.31;5136548;27;1027;-49
2022/07/10 01:57:58;;;;;;;;;;;;;;;13.25;85.82;95084.66;5136267;27;1027;-49
2022/07/10 02:00:24;;;;;;;;;;;;;;;13.43;85.96;95078.16;5136235;27;1035;-49
2022/07/10 02:05:35;;;;;;;;;;;;;;;13.61;84.86;95067.94;5136263;27;1051;-49
2022/07/10 02:08:03;;;;;;;;;;;;;;;13.50;84.77;95071.06;5136123;27;1007;-49
2022/07/10 02:10:29;;;;;;;;;;;;;;;13.26;85.55;95064.00;5136089;27;957;-49
2022/07/10 02:12:55;;;;;;;;;;;;;;;13.15;86.54;95067.94;5135979;27;1906;-48
2022/07/10 02:15:22;;;;;;;;;;;;;;;13.15;86.21;95062.59;5136134;27;1043;-49
2022/07/10 02:17:48;;;;;;;;;;;;;;;13.38;86.00;95065.28;5136219;27;1049;-49
2022/07/10 02:20:14;;;;;;;;;;;;;;;13.51;85.36;95063.81;5135794;27;1036;-49
2022/07/10 02:22:40;;;;;;;;;;;;;;;13.38;85.29;95067.97;5136001;27;1027;-49
2022/07/10 02:25:06;;;;;;;;;;;;;;;13.42;84.87;95074.66;5135561;27;1082;-49
2022/07/10 02:27:32;;;;;;;;;;;;;;;13.23;85.22;95065.19;5136105;27;980;-49
2022/07/10 02:29:58;;;;;;;;;;;;;;;13.31;85.23;95064.31;5135838;27;1030;-49
2022/07/10 02:32:24;;;;;;;;;;;;;;;13.19;85.60;95068.44;5135816;27;1102;-49
2022/07/10 02:34:50;;;;;;;;;;;;;;;13.23;85.61;95059.81;5135379;27;1905;-49
2022/07/10 02:37:16;;;;;;;;;;;;;;;13.25;86.15;95063.16;5135490;27;1099;-49
2022/07/10 02:39:42;;;;;;;;;;;;;;;13.07;84.94;95068.84;5135473;27;925;-49
2022/07/10 02:42:08;;;;;;;;;;;;;;;12.90;85.29;95061.94;5135798;27;1169;-49
2022/07/10 02:44:34;;;;;;;;;;;;;;;12.75;86.69;95060.97;5156035;27;1024;-49
2022/07/10 02:47:00;;;;;;;;;;;;;;;12.66;87.31;95069.09;5156120;27;968;-49
2022/07/10 02:49:26;;;;;;;;;;;;;;;12.65;87.37;95067.44;5155990;27;1971;-49
2022/07/10 02:51:52;;;;;;;;;;;;;;;12.83;87.29;95077.06;5156168;27;984;-49
2022/07/10 02:54:18;;;;;;;;;;;;;;;13.09;86.09;95071.34;5155699;27;1905;-49
2022/07/10 02:56:44;;;;;;;;;;;;;;;13.14;85.80;95077.00;5155951;27;1000;-49
2022/07/10 02:59:10;;;;;;;;;;;;;;;13.16;85.66;95079.50;5155662;27;1897;-49
2022/07/10 03:01:36;;;;;;;;;;;;;;;13.11;85.55;95079.22;5156091;27;992;-49
2022/07/10 03:04:02;;;;;;;;;;;;;;;13.11;85.51;95077.38;5155537;27;957;-49
2022/07/10 03:06:29;;;;;;;;;;;;;;;13.31;84.81;95075.06;5155825;27;1024;-49
2022/07/10 03:08:54;;;;;;;;;;;;;;;13.18;84.83;95075.63;5155765;27;1036;-49
2022/07/10 03:11:21;;;;;;;;;;;;;;;13.11;85.06;95082.75;5155393;27;1020;-49
2022/07/10 03:13:47;;;;;;;;;;;;;;;13.31;84.43;95076.94;5155572;27;1913;-49
2022/07/10 03:16:13;;;;;;;;;;;;;;;13.23;84.66;95080.47;5154807;27;1979;-49
2022/07/10 03:18:39;;;;;;;;;;;;;;;13.25;84.97;95086.50;5155684;27;1095;-48
2022/07/10 03:21:05;;;;;;;;;;;;;;;13.23;85.02;95081.31;5155381;27;1024;-49
2022/07/10 03:23:31;;;;;;;;;;;;;;;13.04;85.94;95087.97;5155458;27;1084;-49
2022/07/10 03:25:57;;;;;;;;;;;;;;;13.05;86.10;95091.50;5155238;27;967;-49
2022/07/10 03:28:23;;;;;;;;;;;;;;;13.05;86.14;95083.44;5155339;27;1954;-49
2022/07/10 03:30:50;;;;;;;;;;;;;;;13.06;86.30;95077.91;5155436;27;984;-49
2022/07/10 03:33:16;;;;;;;;;;;;;;;13.01;86.97;95079.44;5155185;27;1905;-49
2022/07/10 03:35:42;;;;;;;;;;;;;;;12.97;86.96;95072.75;5154777;27;1222;-49
2022/07/10 03:38:08;;;;;;;;;;;;;;;13.03;87.44;95080.97;5155259;27;1102;-49
2022/07/10 03:40:34;;;;;;;;;;;;;;;13.32;87.37;95076.75;5154925;27;917;-49
2022/07/10 03:43:00;;;;;;;;;;;;;;;13.57;87.08;95084.59;5147137;27;1188;-49
2022/07/10 03:45:26;;;;;;;;;;;;;;;13.69;86.95;95079.63;5134391;27;956;-49
2022/07/10 03:47:52;;;;;;;;;;;;;;;13.89;86.72;95083.47;5134576;27;945;-49
2022/07/10 03:50:18;;;;;;;;;;;;;;;13.92;86.66;95082.25;5134056;27;1055;-49
2022/07/10 03:52:46;;;;;;;;;;;;;;;13.78;85.64;95084.75;5134367;27;1909;-49
2022/07/10 03:55:12;;;;;;;;;;;;;;;13.91;86.14;95077.91;5133943;27;1065;-48
2022/07/10 04:10:38;;;;;;;;;;;;;;;14.39;89.39;95087.28;4800488;27;1452775;-48
2022/07/10 04:13:04;;;;;;;;;;;;;;;14.68;87.89;95087.47;5152358;27;978;-49
2022/07/10 04:15:30;;;;;;;;;;;;;;;15.08;86.51;95079.84;5152103;27;1037;-48
2022/07/10 04:17:56;;;;;;;;;;;;;;;15.37;85.72;95095.91;5152168;27;1188;-49
2022/07/10 04:20:23;;;;;;;;;;;;;;;15.81;82.92;95092.19;5152213;27;1024;-49
2022/07/10 04:22:49;;;;;;;;;;;;;;;16.10;83.22;95094.91;5152298;27;979;-49
2022/07/10 04:25:15;;;;;;;;;;;;;;;16.22;80.15;95093.34;5151732;27;1910;-49
2022/07/10 04:27:41;;;;;;;;;;;;;;;16.35;80.37;95087.16;5151893;27;1107;-49
2022/07/10 04:30:08;;;;;;;;;;;;;;;16.49;79.90;95077.31;5151908;27;1048;-49
2022/07/10 04:32:34;;;;;;;;;;;;;;;16.34;80.71;95085.53;5151782;27;928;-49
2022/07/10 04:35:01;;;;;;;;;;;;;;;16.27;79.86;95085.47;5151475;27;1167;-49
2022/07/10 04:37:28;;;;;;;;;;;;;;;16.30;80.34;95082.38;5151604;27;924;-49
2022/07/10 04:39:54;;;;;;;;;;;;;;;16.28;80.78;95083.63;5151702;27;1963;-49
2022/07/10 04:42:20;;;;;;;;;;;;;;;16.31;80.42;95084.03;5151380;27;1126;-49
2022/07/10 04:44:46;;;;;;;;;;;;;;;16.31;81.19;95088.59;5151764;27;1052;-49
2022/07/10 04:47:12;;;;;;;;;;;;;;;16.24;80.83;95083.19;5151338;27;1905;-49
2022/07/10 04:49:38;;;;;;;;;;;;;;;16.19;81.36;95086.44;5151454;27;996;-49
2022/07/10 04:52:04;;;;;;;;;;;;;;;16.20;81.31;95089.97;5151230;27;996;-48
2022/07/10 04:54:32;;;;;;;;;;;;;;;16.18;81.43;95087.50;5151467;27;1029;-49
2022/07/10 04:56:58;;;;;;;;;;;;;;;16.25;81.15;95089.41;5151343;27;973;-49
2022/07/10 04:59:24;;;;;;;;;;;;;;;16.20;81.92;95096.22;5151292;27;1032;-49
2022/07/10 05:01:50;;;;;;;;;;;;;;;16.30;82.72;95095.88;5151195;27;961;-49
2022/07/10 05:04:16;;;;;;;;;;;;;;;16.29;81.28;95093.38;5150902;27;1035;-49
2022/07/10 05:06:42;;;;;;;;;;;;;;;16.27;84.24;95092.72;5151294;27;1992;-49
2022/07/10 05:09:08;;;;;;;;;;;;;;;16.24;82.33;95088.56;5146294;27;1616;-49
2022/07/10 05:11:34;;;;;;;;;;;;;;;16.26;81.87;95093.75;5130552;28;1004;-48
2022/07/10 05:14:00;;;;;;;;;;;;;;;16.34;82.40;95089.03;5130502;28;1007;-49
2022/07/10 05:16:26;;;;;;;;;;;;;;;16.32;82.95;95092.97;5129838;28;1055;-49
2022/07/10 05:18:52;;;;;;;;;;;;;;;16.26;81.71;95088.34;5116176;28;1029;-49
2022/07/10 05:21:18;;;;;;;;;;;;;;;16.25;82.30;95097.50;5116714;28;932;-49
2022/07/10 05:23:44;;;;;;;;;;;;;;;16.33;81.53;95097.31;5116650;28;1083;-49
2022/07/10 05:26:10;;;;;;;;;;;;;;;16.29;80.92;95098.75;5116363;28;1910;-48
2022/07/10 05:28:36;;;;;;;;;;;;;;;16.30;82.50;95090.47;5116548;28;1096;-48
2022/07/10 05:31:02;;;;;;;;;;;;;;;16.34;83.13;95096.31;5116869;28;1119;-48
2022/07/10 05:33:28;;;;;;;;;;;;;;;16.31;83.07;95096.69;5116276;28;1071;-49
2022/07/10 05:35:55;;;;;;;;;;;;;;;16.45;82.64;95098.47;5116341;28;1024;-48
2022/07/10 05:38:21;;;;;;;;;;;;;;;16.63;81.48;95084.41;5116264;28;962;-48
2022/07/10 05:40:48;;;;;;;;;;;;;;;16.79;80.07;95089.50;5116476;28;977;-49
2022/07/10 05:43:14;;;;;;;;;;;;;;;16.91;80.09;95081.66;5106325;28;1209;-49
2022/07/10 05:45:40;;;;;;;;;;;;;;;16.93;80.87;95079.59;5095844;28;1984;-49
2022/07/10 05:48:06;;;;;;;;;;;;;;;16.96;80.66;95081.06;5095480;28;996;-49
2022/07/10 05:50:32;;;;;;;;;;;;;;;17.05;81.60;95076.31;5095699;28;1096;-48
2022/07/10 05:52:59;;;;;;;;;;;;;;;17.05;82.67;95076.31;5095492;28;1012;-49
2022/07/10 05:55:25;;;;;;;;;;;;;;;17.14;81.16;95083.19;5095640;28;1881;-49
2022/07/10 05:57:51;;;;;;;;;;;;;;;17.05;82.34;95071.72;5095519;28;981;-49
2022/07/10 06:00:17;;;;;;;;;;;;;;;17.15;83.81;95076.78;5095478;28;1075;-47
2022/07/10 06:02:43;;;;;;;;;;;;;;;17.32;82.66;95080.75;5095293;28;941;-47
2022/07/10 06:05:09;;;;;;;;;;;;;;;17.49;82.46;95073.09;5095336;28;1981;-48
2022/07/10 06:07:35;;;;;;;;;;;;;;;17.58;82.53;95076.41;5095424;28;1049;-47
2022/07/10 06:10:03;;;;;;;;;;;;;;;17.69;82.06;95070.41;5095095;28;1342;-53
2022/07/10 06:12:29;;;;;;;;;;;;;;;17.79;82.73;95069.16;5095286;28;965;-47
2022/07/10 06:14:55;;;;;;;;;;;;;;;17.83;80.38;95073.94;5095334;28;974;-48
2022/07/10 06:17:21;;;;;;;;;;;;;;;18.03;78.47;95071.25;5094925;28;1015;-47
2022/07/10 06:19:47;;;;;;;;;;;;;;;18.28;77.89;95076.84;5095441;28;991;-47
2022/07/10 06:22:31;;;;;;;;;;;;;;;18.26;78.78;95069.97;5095030;28;993;-48
2022/07/10 06:25:02;;;;;;;;;;;;;;;18.42;77.35;95069.53;5095189;28;1988;-47
2022/07/10 06:27:28;;;;;;;;;;;;;;;19.09;75.61;95058.50;5094867;28;966;-48
2022/07/10 06:29:55;;;;;;;;;;;;;;;19.78;72.75;95064.13;5094007;28;933;-48
2022/07/10 06:32:21;;;;;;;;;;;;;;;20.08;71.60;95059.69;5094658;28;1080;-48
2022/07/10 06:34:47;;;;;;;;;;;;;;;20.34;70.18;95063.22;5094894;28;1004;-48
2022/07/10 06:37:13;;;;;;;;;;;;;;;20.37;69.84;95053.78;5094702;28;958;-48
2022/07/10 06:39:39;;;;;;;;;;;;;;;20.06;69.25;95058.25;5076961;28;1033;-48
2022/07/10 06:42:06;;;;;;;;;;;;;;;20.01;69.93;95053.47;5094551;28;1037;-48
2022/07/10 06:44:32;;;;;;;;;;;;;;;20.00;70.61;95049.13;5094606;28;1052;-48
2022/07/10 06:49:45;;;;;;;;;;;;;;;20.11;70.52;95055.72;5094805;28;957;-49
2022/07/10 06:52:11;;;;;;;;;;;;;;;19.93;69.38;95053.78;5094363;28;1037;-48
2022/07/10 06:54:37;;;;;;;;;;;;;;;19.83;70.71;95050.75;5094605;28;1042;-48
2022/07/10 06:57:04;;;;;;;;;;;;;;;19.88;73.04;95048.16;5094225;28;1196;-48
2022/07/10 06:59:30;;;;;;;;;;;;;;;20.01;72.40;95045.34;5094392;28;1111;-47
2022/07/10 07:01:56;;;;;;;;;;;;;;;20.19;69.75;95043.75;5094567;28;942;-47
2022/07/10 07:04:22;;;;;;;;;;;;;;;20.33;70.15;95044.44;5094028;28;1013;-47
2022/07/10 07:06:48;;;;;;;;;;;;;;;20.52;70.07;95048.81;5094285;28;1906;-47
2022/07/10 07:09:14;;;;;;;;;;;;;;;20.72;70.18;95045.91;5094063;28;1258;-47
2022/07/10 07:11:40;;;;;;;;;;;;;;;20.82;67.65;95043.47;5094138;28;1017;-47
2022/07/10 07:14:06;;;;;;;;;;;;;;;20.84;67.67;95038.66;5094128;28;1046;-47
2022/07/10 07:16:39;;;;;;;;;;;;;;;20.82;67.39;95039.94;5094121;28;1068;-47
2022/07/10 07:19:05;;;;;;;;;;;;;;;20.89;67.71;95039.84;5093967;28;966;-47
2022/07/10 07:24:18;;;;;;;;;;;;;;;21.11;68.03;95032.03;5093752;28;1055;-48
2022/07/10 07:26:47;;;;;;;;;;;;;;;21.20;67.33;95027.94;5093977;28;1992;-49
2022/07/10 07:29:16;;;;;;;;;;;;;;;21.76;64.73;95025.88;5093810;28;965;-49
2022/07/10 07:31:42;;;;;;;;;;;;;;;22.21;62.02;95026.19;5093839;28;1028;-48
2022/07/10 07:34:09;;;;;;;;;;;;;;;22.19;62.84;95024.75;5093385;28;1037;-48
2022/07/10 07:36:35;;;;;;;;;;;;;;;22.03;61.39;95032.56;5093838;28;984;-48
2022/07/10 07:39:01;;;;;;;;;;;;;;;21.97;62.07;95028.06;5093444;28;970;-48
2022/07/10 07:41:27;;;;;;;;;;;;;;;21.97;62.28;95019.88;5093503;28;1863;-49
2022/07/10 07:43:53;;;;;;;;;;;;;;;22.08;60.66;95025.56;5108721;28;1221;-49
2022/07/10 07:46:20;;;;;;;;;;;;;;;22.22;58.35;95016.09;5113859;28;1914;-49
2022/07/10 07:48:46;;;;;;;;;;;;;;;22.35;58.62;95018.63;5113901;28;964;-48
2022/07/10 07:51:13;;;;;;;;;;;;;;;22.30;60.27;95023.13;5113904;28;978;-49
2022/07/10 07:53:39;;;;;;;;;;;;;;;22.25;58.44;95018.38;5113704;28;1015;-49
2022/07/10 07:56:05;;;;;;;;;;;;;;;22.22;58.62;95014.22;5113833;28;1013;-49
2022/07/10 07:58:31;;;;;;;;;;;;;;;22.31;58.64;95012.00;5113900;28;969;-49
2022/07/10 08:00:58;;;;;;;;;;;;;;;22.57;60.17;95007.09;5113882;28;1098;-49
2022/07/10 08:03:24;;;;;;;;;;;;;;;23.05;59.91;95011.41;5113540;28;1107;-49
2022/07/10 08:05:50;;;;;;;;;;;;;;;23.34;58.03;95000.47;5113545;28;1914;-49
2022/07/10 08:08:16;;;;;;;;;;;;;;;23.65;56.12;95009.22;5113519;28;1162;-49
2022/07/10 08:10:42;;;;;;;;;;;;;;;23.52;55.22;95010.34;5113705;28;1218;-49
2022/07/10 08:13:08;;;;;;;;;;;;;;;23.51;57.95;95009.53;5113837;28;1079;-49
2022/07/10 08:15:34;;;;;;;;;;;;;;;23.64;53.87;95016.56;5113774;28;965;-49
2022/07/10 08:18:00;;;;;;;;;;;;;;;23.69;53.57;95013.91;5113620;28;1049;-49
2022/07/10 08:20:27;;;;;;;;;;;;;;;23.79;55.08;94999.66;5113543;28;1027;-49
2022/07/10 08:22:53;;;;;;;;;;;;;;;23.92;54.99;95006.69;5113617;28;1013;-48
2022/07/10 08:25:20;;;;;;;;;;;;;;;24.06;55.26;95012.66;5113560;28;2004;-49
2022/07/10 08:27:46;;;;;;;;;;;;;;;24.15;53.69;95011.97;5113559;28;975;-49
2022/07/10 08:30:12;;;;;;;;;;;;;;;23.90;53.07;95011.56;5113440;28;999;-49
2022/07/10 08:32:38;;;;;;;;;;;;;;;23.82;53.04;95025.63;5113930;28;1048;-49
2022/07/10 08:35:05;;;;;;;;;;;;;;;23.65;53.70;95020.13;5113088;28;1021;-49
2022/07/10 08:37:44;;;;;;;;;;;;;;;24.00;52.28;95014.47;5113437;28;1049;-49
2022/07/10 08:40:12;;;;;;;;;;;;;;;24.30;51.88;95018.72;5113322;28;1020;-49
2022/07/10 08:42:39;;;;;;;;;;;;;;;24.70;52.67;95018.53;5108973;28;1145;-49
2022/07/10 08:45:06;;;;;;;;;;;;;;;24.93;50.58;95022.09;5092717;28;1910;-49
2022/07/10 08:47:35;;;;;;;;;;;;;;;24.65;49.76;95018.47;5093136;28;954;-49
2022/07/10 08:50:01;;;;;;;;;;;;;;;24.55;51.51;95008.22;5092579;28;964;-49
2022/07/10 08:52:37;;;;;;;;;;;;;;;24.27;50.16;95017.34;5094290;28;1060;-47
2022/07/10 08:55:04;;;;;;;;;;;;;;;24.10;50.57;95011.06;5096631;28;1033;-47
2022/07/10 08:57:31;;;;;;;;;;;;;;;24.53;51.64;95004.09;5096749;28;1060;-49
2022/07/10 08:59:57;;;;;;;;;;;;;;;24.68;50.32;95003.44;5096649;28;1041;-49
2022/07/10 09:02:23;;;;;;;;;;;;;;;24.93;48.69;94998.31;5096580;28;1049;-48
2022/07/10 09:04:49;;;;;;;;;;;;;;;25.22;49.94;95000.00;5096527;28;978;-49
2022/07/10 09:07:15;;;;;;;;;;;;;;;25.03;47.67;95003.06;5096422;28;1987;-49
2022/07/10 09:09:52;;;;;;;;;;;;;;;24.84;50.74;94999.84;5096389;28;1255;-49
2022/07/10 09:12:19;;;;;;;;;;;;;;;24.86;51.55;95010.53;5096451;28;1040;-49
2022/07/10 09:14:45;;;;;;;;;;;;;;;25.14;51.10;95002.13;5096376;28;1024;-49
2022/07/10 09:17:11;;;;;;;;;;;;;;;25.20;49.23;95000.25;5096177;28;996;-49
2022/07/10 09:19:39;;;;;;;;;;;;;;;25.22;50.00;95002.75;5096430;28;996;-49
2022/07/10 09:22:08;;;;;;;;;;;;;;;25.18;48.48;94996.13;5096206;28;1068;-49
2022/07/10 09:24:39;;;;;;;;;;;;;;;24.75;48.98;94995.88;5096073;28;1861;-49
2022/07/10 09:27:05;;;;;;;;;;;;;;;24.34;49.09;94995.31;5096041;28;1910;-49
2022/07/10 09:29:32;;;;;;;;;;;;;;;23.94;48.91;94996.34;5096051;28;961;-49
2022/07/10 09:31:59;;;;;;;;;;;;;;;23.81;49.05;94993.94;5096062;28;1158;-49
2022/07/10 09:34:37;;;;;;;;;;;;;;;23.73;49.52;94989.69;5095891;28;1960;-49
2022/07/10 09:37:19;;;;;;;;;;;;;;;23.57;50.74;94994.88;5096024;28;1057;-49
2022/07/10 09:39:58;;;;;;;;;;;;;;;23.44;50.28;94995.19;5095875;28;1015;-49
2022/07/10 09:42:29;;;;;;;;;;;;;;;23.39;51.30;94992.38;5098714;28;1154;-49
2022/07/10 09:45:20;;;;;;;;;;;;;;;23.27;53.05;94995.16;5116061;28;1036;-49
2022/07/10 09:47:54;;;;;;;;;;;;;;;23.29;51.49;94989.47;5116399;28;1056;-49
2022/07/10 09:50:22;;;;;;;;;;;;;;;23.48;50.97;94992.81;5115919;28;1020;-47
2022/07/10 09:52:52;;;;;;;;;;;;;;;23.64;51.42;94996.63;5116112;28;974;-47
2022/07/10 09:55:20;;;;;;;;;;;;;;;24.05;50.41;94995.41;5115840;28;1068;-47
2022/07/10 09:57:52;;;;;;;;;;;;;;;24.23;49.80;94990.78;5116233;28;1026;-47
2022/07/10 10:00:18;;;;;;;;;;;;;;;24.17;49.56;94987.97;5115819;28;1091;-47
2022/07/10 10:15:42;;;;;;;;;;;;;;;22.85;54.67;94992.69;4781686;27;2532389;-48
2022/07/10 10:18:08;;;;;;;;;;;;;;;22.98;53.44;94992.41;5152154;27;1135;-49
2022/07/10 10:20:41;;;;;;;;;;;;;;;23.24;52.14;94992.09;5152128;27;1020;-49
2022/07/10 10:23:09;;;;;;;;;;;;;;;23.42;51.51;94991.88;5152101;27;1016;-48
2022/07/10 10:25:36;;;;;;;;;;;;;;;23.55;49.91;94993.50;5152055;27;1011;-48
2022/07/10 10:28:04;;;;;;;;;;;;;;;23.70;49.85;94982.84;5151878;27;1093;-49
2022/07/10 10:30:30;;;;;;;;;;;;;;;23.76;49.17;94978.28;5151854;27;1902;-48
2022/07/10 10:32:56;;;;;;;;;;;;;;;23.74;49.09;94981.25;5152081;27;1032;-49
2022/07/10 10:35:43;;;;;;;;;;;;;;;24.08;50.58;94978.53;5151820;27;1046;-49
2022/07/10 10:38:09;;;;;;;;;;;;;;;24.21;52.01;94969.19;5151857;27;1059;-47
2022/07/10 10:40:36;;;;;;;;;;;;;;;24.08;50.88;94978.53;5151680;27;1114;-47
2022/07/10 10:43:19;;;;;;;;;;;;;;;23.99;52.09;94974.56;5151453;27;1158;-47
2022/07/10 10:45:48;;;;;;;;;;;;;;;24.15;50.36;94972.94;5151653;27;1016;-47
2022/07/10 10:48:15;;;;;;;;;;;;;;;24.28;49.10;94963.53;5151578;27;973;-49
2022/07/10 10:50:51;;;;;;;;;;;;;;;24.43;51.30;94963.72;5151529;27;1909;-49
2022/07/10 10:53:21;;;;;;;;;;;;;;;24.31;51.13;94957.56;5133066;27;1040;-49
2022/07/10 10:56:03;;;;;;;;;;;;;;;24.20;49.98;94956.59;5151533;27;1020;-50
2022/07/10 10:58:39;;;;;;;;;;;;;;;24.05;49.19;94954.47;5151541;27;1059;-50
2022/07/10 11:01:25;;;;;;;;;;;;;;;23.95;49.39;94946.94;5151227;27;1078;-50
2022/07/10 11:04:04;;;;;;;;;;;;;;;23.91;50.93;94951.25;5151346;27;1075;-51
2022/07/10 11:06:39;;;;;;;;;;;;;;;23.83;51.57;94953.56;5151283;27;940;-51
2022/07/10 11:09:24;;;;;;;;;;;;;;;23.78;50.84;94962.47;5151324;27;1059;-50
2022/07/10 11:12:04;;;;;;;;;;;;;;;23.72;49.89;94949.84;5151044;27;1982;-51
2022/07/10 11:14:31;;;;;;;;;;;;;;;23.83;49.95;94951.69;5143217;27;1204;-50
2022/07/10 11:16:57;;;;;;;;;;;;;;;23.88;49.66;94954.47;5130397;28;950;-51
2022/07/10 11:19:24;;;;;;;;;;;;;;;23.93;49.07;94946.38;5130545;28;1067;-51
2022/07/10 11:21:55;;;;;;;;;;;;;;;23.95;49.87;94943.41;5127492;28;961;-50
2022/07/10 11:24:33;;;;;;;;;;;;;;;23.96;49.26;94945.88;5116743;28;1045;-51
2022/07/10 11:27:06;;;;;;;;;;;;;;;24.13;49.18;94942.28;5116516;28;1146;-51
2022/07/10 11:29:36;;;;;;;;;;;;;;;24.27;49.23;94938.13;5116942;28;1053;-50
2022/07/10 11:32:02;;;;;;;;;;;;;;;24.46;49.55;94943.28;5098155;28;1905;-50
2022/07/10 11:34:34;;;;;;;;;;;;;;;24.47;49.13;94939.47;5116303;28;1044;-51
2022/07/10 11:37:00;;;;;;;;;;;;;;;24.51;49.89;94933.28;5116231;28;1017;-50
2022/07/10 11:39:26;;;;;;;;;;;;;;;24.44;48.63;94934.53;5116373;28;1020;-50
2022/07/10 11:41:52;;;;;;;;;;;;;;;24.41;49.02;94938.56;5116439;28;963;-50
2022/07/10 11:44:20;;;;;;;;;;;;;;;24.61;49.55;94931.75;5097532;28;1161;-50
2022/07/10 11:46:49;;;;;;;;;;;;;;;24.93;49.81;94931.88;5095961;28;1037;-50
2022/07/10 11:49:15;;;;;;;;;;;;;;;25.11;47.70;94938.88;5095641;28;1016;-50
2022/07/10 11:51:42;;;;;;;;;;;;;;;25.03;47.73;94942.91;5077745;28;1910;-48
2022/07/10 11:54:11;;;;;;;;;;;;;;;24.87;46.94;94943.81;5095689;28;1068;-48
2022/07/10 11:56:41;;;;;;;;;;;;;;;24.68;47.87;94944.16;5077926;28;1154;-47
2022/07/10 11:59:08;;;;;;;;;;;;;;;24.50;49.38;94942.53;5095559;28;1062;-49
2022/07/10 12:01:40;;;;;;;;;;;;;;;24.44;48.56;94943.53;5095733;28;949;-48
2022/07/10 12:04:07;;;;;;;;;;;;;;;24.43;46.86;94949.25;5095111;28;1008;-48
2022/07/10 12:06:34;;;;;;;;;;;;;;;24.42;48.40;94944.88;5095427;28;1041;-48
2022/07/10 12:09:10;;;;;;;;;;;;;;;24.37;47.79;94942.91;5095437;28;960;-49
2022/07/10 12:11:36;;;;;;;;;;;;;;;24.43;47.33;94944.59;5077356;28;1983;-49
2022/07/10 12:14:08;;;;;;;;;;;;;;;24.50;47.70;94947.16;5095041;28;1247;-49
2022/07/10 12:16:35;;;;;;;;;;;;;;;24.57;46.91;94949.72;5095357;28;974;-48
2022/07/10 12:19:02;;;;;;;;;;;;;;;24.56;47.36;94948.91;5077011;28;962;-49
2022/07/10 12:21:29;;;;;;;;;;;;;;;24.48;47.34;94941.94;5095347;28;1025;-48
2022/07/10 12:23:56;;;;;;;;;;;;;;;24.55;46.38;94944.53;5095140;28;958;-48
2022/07/10 12:26:30;;;;;;;;;;;;;;;24.57;46.57;94939.66;5095172;28;1104;-48
2022/07/10 12:28:56;;;;;;;;;;;;;;;24.75;47.60;94935.75;5095009;28;1080;-48
2022/07/10 12:31:27;;;;;;;;;;;;;;;24.85;46.28;94935.03;5094862;28;1979;-49
2022/07/10 12:33:54;;;;;;;;;;;;;;;24.89;46.38;94947.09;5094056;28;961;-49
2022/07/10 12:36:20;;;;;;;;;;;;;;;25.03;45.08;94942.91;5094683;28;1016;-48
2022/07/10 12:38:54;;;;;;;;;;;;;;;24.97;45.18;94941.22;5094659;28;1064;-48
2022/07/10 12:41:24;;;;;;;;;;;;;;;24.84;46.05;94941.59;5094810;28;946;-49
2022/07/10 12:43:51;;;;;;;;;;;;;;;25.00;44.87;94935.19;5109166;28;1229;-48
2022/07/10 12:46:19;;;;;;;;;;;;;;;25.11;45.98;94939.69;5114981;28;1016;-48
2022/07/10 12:49:14;;;;;;;;;;;;;;;24.96;45.94;94936.00;5114878;28;1020;-50
2022/07/10 12:51:50;;;;;;;;;;;;;;;24.84;45.12;94944.34;5097437;28;1996;-49
2022/07/10 12:54:32;;;;;;;;;;;;;;;24.98;44.65;94940.09;5114682;28;898;-49
2022/07/10 12:57:00;;;;;;;;;;;;;;;25.04;46.10;94950.03;5115129;28;1916;-48
2022/07/10 12:59:27;;;;;;;;;;;;;;;25.15;45.78;94945.50;5114781;28;1052;-48
2022/07/10 13:01:53;;;;;;;;;;;;;;;25.09;44.17;94943.78;5114739;28;985;-48
2022/07/10 13:04:26;;;;;;;;;;;;;;;25.14;43.86;94939.19;5114562;28;1042;-48
2022/07/10 13:06:53;;;;;;;;;;;;;;;25.16;44.46;94935.38;5114819;28;962;-49
2022/07/10 13:09:21;;;;;;;;;;;;;;;25.19;44.26;94948.53;5114924;28;978;-49
2022/07/10 13:11:48;;;;;;;;;;;;;;;25.19;43.63;94934.84;5114547;28;1930;-48
2022/07/10 13:14:14;;;;;;;;;;;;;;;25.30;43.17;94937.47;5114366;28;1099;-49
2022/07/10 13:16:40;;;;;;;;;;;;;;;25.35;44.19;94941.34;5114765;28;984;-49
2022/07/10 13:19:06;;;;;;;;;;;;;;;25.36;43.87;94935.59;5114247;28;1347;-49
2022/07/10 13:21:32;;;;;;;;;;;;;;;25.29;43.33;94929.53;5114486;28;1017;-49
2022/07/10 13:23:58;;;;;;;;;;;;;;;25.31;42.22;94927.38;5114211;28;1007;-49
2022/07/10 13:26:24;;;;;;;;;;;;;;;25.33;43.62;94930.66;5114517;28;1051;-49
2022/07/10 13:28:50;;;;;;;;;;;;;;;25.30;42.99;94929.25;5114309;28;1045;-50
2022/07/10 13:31:16;;;;;;;;;;;;;;;25.18;44.12;94931.31;5114278;28;1993;-49
2022/07/10 13:33:42;;;;;;;;;;;;;;;25.24;44.12;94933.03;5114097;28;957;-49
2022/07/10 13:36:08;;;;;;;;;;;;;;;25.20;42.28;94928.31;5113913;28;1087;-49